createdAt,value
2018-05-15T00:02:07.206Z,48.60
2018-05-15T00:04:35.479Z,48.60
2018-05-15T00:07:03.734Z,49.20
2018-05-15T00:09:31.232Z,49.20
2018-05-15T00:11:58.766Z,49.40
2018-05-15T00:14:27.046Z,49.00
2018-05-15T00:16:55.308Z,49.10
2018-05-15T00:19:23.607Z,49.40
2018-05-15T00:21:51.158Z,49.40
2018-05-15T00:24:19.432Z,50.50
2018-05-15T00:26:47.687Z,51.30
2018-05-15T00:29:15.274Z,51.20
2018-05-15T00:31:43.746Z,51.20
2018-05-15T00:34:12.023Z,51.90
2018-05-15T00:36:40.288Z,53.10
2018-05-15T00:39:08.555Z,53.40
2018-05-15T00:41:36.063Z,53.30
2018-05-15T00:44:03.556Z,52.50
2018-05-15T00:46:31.067Z,52.00
2018-05-15T00:48:58.552Z,52.00
2018-05-15T00:51:26.064Z,52.80
2018-05-15T00:53:54.343Z,52.30
2018-05-15T00:56:22.729Z,52.30
2018-05-15T00:58:50.290Z,52.30
2018-05-15T01:01:17.840Z,53.10
2018-05-15T01:03:46.111Z,53.20
2018-05-15T01:06:14.394Z,53.80
2018-05-15T01:08:42.670Z,53.90
2018-05-15T01:11:10.943Z,54.10
2018-05-15T01:13:39.211Z,54.60
2018-05-15T01:16:07.487Z,55.50
2018-05-15T01:18:35.763Z,56.30
2018-05-15T01:21:04.095Z,56.80
2018-05-15T01:23:31.574Z,56.70
2018-05-15T01:25:59.087Z,56.40
2018-05-15T01:28:26.590Z,56.10
2018-05-15T01:30:54.101Z,56.00
2018-05-15T01:33:21.602Z,55.70
2018-05-15T01:35:49.119Z,55.70
2018-05-15T01:38:16.614Z,55.30
2018-05-15T01:40:44.213Z,55.20
2018-05-15T01:43:12.494Z,55.10
2018-05-15T01:45:40.062Z,55.10
2018-05-15T01:48:07.613Z,55.00
2018-05-15T01:50:35.171Z,55.00
2018-05-15T01:53:03.456Z,55.00
2018-05-15T01:55:30.962Z,54.90
2018-05-15T01:57:58.461Z,54.90
2018-05-15T02:00:26.747Z,55.20
2018-05-15T02:02:54.226Z,55.20
2018-05-15T02:05:21.742Z,55.30
2018-05-15T02:07:50.027Z,56.30
2018-05-15T02:10:18.282Z,57.60
2018-05-15T02:12:46.583Z,57.60
2018-05-15T02:15:14.863Z,58.70
2018-05-15T02:17:42.390Z,58.60
2018-05-15T02:20:09.882Z,58.60
2018-05-15T02:22:37.441Z,59.20
2018-05-15T02:25:04.994Z,59.40
2018-05-15T02:27:33.282Z,59.60
2018-05-15T02:30:00.838Z,59.50
2018-05-15T02:32:28.343Z,59.40
2018-05-15T02:34:55.852Z,59.30
2018-05-15T02:37:23.411Z,59.80
2018-05-15T02:39:50.972Z,60.60
2018-05-15T02:42:18.527Z,61.70
2018-05-15T02:44:46.086Z,61.70
2018-05-15T02:47:13.640Z,62.00
2018-05-15T02:49:41.910Z,62.90
2018-05-15T02:52:10.195Z,63.50
2018-05-15T02:54:38.472Z,63.40
2018-05-15T02:57:05.963Z,63.40
2018-05-15T02:59:33.482Z,63.90
2018-05-15T03:02:01.772Z,64.90
2018-05-15T03:04:29.287Z,64.90
2018-05-15T03:06:56.883Z,65.60
2018-05-15T03:09:24.434Z,66.00
2018-05-15T03:11:52.702Z,66.50
2018-05-15T03:14:21.002Z,66.90
2018-05-15T03:16:48.554Z,66.90
2018-05-15T03:19:16.046Z,66.90
2018-05-15T03:21:43.556Z,66.60
2018-05-15T03:24:11.811Z,66.70
2018-05-15T03:26:39.399Z,66.60
2018-05-15T03:29:07.650Z,65.90
2018-05-15T03:31:35.171Z,65.90
2018-05-15T03:34:02.696Z,66.30
2018-05-15T03:36:30.246Z,66.10
2018-05-15T03:38:58.499Z,66.60
2018-05-15T03:41:26.099Z,66.50
2018-05-15T03:43:53.650Z,67.00
2018-05-15T03:46:21.149Z,67.00
2018-05-15T03:48:48.658Z,66.90
2018-05-15T03:51:16.936Z,66.70
2018-05-15T03:53:45.218Z,66.60
2018-05-15T03:56:12.726Z,66.60
2018-05-15T03:58:40.245Z,66.80
2018-05-15T04:01:19.882Z,67.10
2018-05-15T04:03:59.483Z,67.20
2018-05-15T04:06:38.855Z,67.50
2018-05-15T04:09:07.226Z,67.60
2018-05-15T04:11:35.488Z,68.00
2018-05-15T04:14:03.079Z,68.00
2018-05-15T04:16:30.596Z,67.90
2018-05-15T04:18:58.183Z,67.20
2018-05-15T04:21:26.459Z,65.70
2018-05-15T04:23:54.840Z,63.60
2018-05-15T04:26:23.119Z,59.80
2018-05-15T04:28:50.635Z,59.80
2018-05-15T04:31:18.131Z,57.20
2018-05-15T04:33:46.424Z,52.50
2018-05-15T04:36:13.966Z,52.50
2018-05-15T04:38:42.443Z,49.30
2018-05-15T04:41:10.695Z,47.80
2018-05-15T04:43:38.409Z,47.80
2018-05-15T04:46:05.802Z,46.50
2018-05-15T04:48:33.304Z,45.40
2018-05-15T04:51:00.864Z,44.20
2018-05-15T04:53:28.433Z,42.60
2018-05-15T04:55:55.951Z,41.20
2018-05-15T04:58:24.259Z,39.20
2018-05-15T05:00:51.783Z,39.20
2018-05-15T05:03:19.292Z,39.50
2018-05-15T05:05:46.835Z,39.90
2018-05-15T05:08:14.388Z,39.80
2018-05-15T05:10:41.947Z,37.90
2018-05-15T05:13:10.214Z,35.90
2018-05-15T05:15:38.474Z,36.30
2018-05-15T05:18:05.988Z,36.30
2018-05-15T05:20:33.515Z,36.10
2018-05-15T05:23:01.787Z,33.70
2018-05-15T05:25:30.079Z,33.90
2018-05-15T05:27:57.593Z,33.90
2018-05-15T05:30:25.096Z,33.40
2018-05-15T05:32:52.652Z,33.20
2018-05-15T05:35:20.217Z,33.30
2018-05-15T05:37:47.735Z,32.90
2018-05-15T05:40:15.255Z,33.60
2018-05-15T05:42:42.784Z,34.20
2018-05-15T05:45:10.342Z,33.00
2018-05-15T05:47:37.935Z,34.10
2018-05-15T05:50:05.447Z,35.40
2018-05-15T05:52:33.735Z,37.80
2018-05-15T05:55:01.263Z,37.80
2018-05-15T05:57:28.770Z,37.90
2018-05-15T05:59:56.316Z,39.00
2018-05-15T06:02:23.970Z,40.00
2018-05-15T06:04:52.348Z,43.00
2018-05-15T06:07:20.651Z,43.20
2018-05-15T06:09:48.183Z,43.20
2018-05-15T06:12:16.448Z,44.00
2018-05-15T06:14:44.731Z,43.70
2018-05-15T06:17:12.998Z,44.80
2018-05-15T06:19:41.271Z,45.40
2018-05-15T06:22:09.557Z,45.60
2018-05-15T06:24:37.840Z,45.70
2018-05-15T06:27:06.114Z,45.90
2018-05-15T06:29:34.496Z,46.20
2018-05-15T06:32:02.054Z,46.20
2018-05-15T06:34:30.332Z,46.60
2018-05-15T06:36:57.845Z,46.50
2018-05-15T06:39:25.348Z,46.50
2018-05-15T06:41:52.915Z,47.00
2018-05-15T06:44:20.462Z,47.00
2018-05-15T06:46:48.722Z,46.60
2018-05-15T06:49:16.299Z,46.50
2018-05-15T06:51:43.858Z,47.20
2018-05-15T06:54:11.376Z,48.00
2018-05-15T06:56:38.982Z,47.80
2018-05-15T06:59:06.484Z,48.50
2018-05-15T07:01:33.967Z,48.90
2018-05-15T07:04:01.483Z,49.40
2018-05-15T07:06:29.011Z,48.00
2018-05-15T07:08:57.293Z,48.90
2018-05-15T07:11:24.819Z,48.80
2018-05-15T07:13:52.411Z,48.10
2018-05-15T07:16:19.958Z,48.00
2018-05-15T07:18:48.245Z,47.70
2018-05-15T07:21:15.794Z,47.70
2018-05-15T07:23:44.275Z,47.30
2018-05-15T07:26:12.543Z,47.70
2018-05-15T07:28:40.842Z,47.50
2018-05-15T07:31:08.388Z,47.40
2018-05-15T07:33:36.671Z,47.60
2018-05-15T07:36:04.167Z,47.60
2018-05-15T07:38:31.783Z,47.60
2018-05-15T07:41:00.039Z,48.40
2018-05-15T07:43:27.551Z,48.40
2018-05-15T07:45:55.041Z,47.90
2018-05-15T07:48:24.163Z,47.70
2018-05-15T07:50:52.447Z,48.10
2018-05-15T07:53:20.723Z,48.80
2018-05-15T07:55:49.007Z,48.90
2018-05-15T07:58:16.563Z,48.80
2018-05-15T08:00:44.084Z,48.20
2018-05-15T08:03:11.695Z,47.90
2018-05-15T08:05:39.211Z,48.20
2018-05-15T08:08:06.720Z,48.60
2018-05-15T08:10:34.256Z,48.30
2018-05-15T08:13:02.591Z,47.60
2018-05-15T08:15:30.112Z,47.60
2018-05-15T08:17:57.648Z,47.30
2018-05-15T08:20:25.211Z,45.50
2018-05-15T08:22:52.730Z,46.50
2018-05-15T08:25:20.241Z,46.60
2018-05-15T08:27:47.731Z,45.70
2018-05-15T08:30:15.338Z,45.50
2018-05-15T08:32:43.618Z,46.40
2018-05-15T08:35:11.894Z,46.00
2018-05-15T08:37:39.515Z,46.10
2018-05-15T08:40:07.012Z,46.40
2018-05-15T08:42:35.266Z,44.70
2018-05-15T08:45:02.755Z,44.30
2018-05-15T08:47:30.307Z,44.90
2018-05-15T08:49:57.880Z,45.00
2018-05-15T08:52:25.424Z,44.20
2018-05-15T08:54:53.700Z,44.50
2018-05-15T08:57:21.253Z,44.40
2018-05-15T08:59:49.540Z,44.10
2018-05-15T09:02:17.053Z,44.00
2018-05-15T09:04:44.555Z,44.90
2018-05-15T09:07:12.826Z,44.70
2018-05-15T09:09:41.075Z,45.00
2018-05-15T09:12:08.590Z,44.90
2018-05-15T09:14:36.124Z,45.00
2018-05-15T09:17:03.676Z,44.50
2018-05-15T09:19:31.955Z,42.40
2018-05-15T09:21:59.512Z,42.40
2018-05-15T09:24:27.891Z,44.20
2018-05-15T09:26:56.162Z,44.20
2018-05-15T09:29:24.649Z,43.90
2018-05-15T09:31:52.050Z,43.80
2018-05-15T09:34:19.661Z,43.70
2018-05-15T09:36:47.916Z,42.60
2018-05-15T09:39:15.430Z,42.60
2018-05-15T09:41:42.922Z,41.80
2018-05-15T09:44:10.443Z,42.40
2018-05-15T09:46:37.935Z,42.50
2018-05-15T09:49:05.443Z,42.10
2018-05-15T09:51:32.994Z,42.20
2018-05-15T09:54:00.655Z,41.70
2018-05-15T09:56:28.148Z,43.20
2018-05-15T09:58:55.680Z,42.70
2018-05-15T10:01:23.234Z,42.80
2018-05-15T10:03:50.736Z,42.80
2018-05-15T10:06:18.243Z,42.40
2018-05-15T10:08:45.803Z,41.20
2018-05-15T10:11:14.079Z,42.10
2018-05-15T10:13:41.585Z,42.10
2018-05-15T10:16:09.103Z,42.10
2018-05-15T10:18:36.611Z,40.60
2018-05-15T10:21:04.111Z,40.60
2018-05-15T10:23:32.487Z,39.90
2018-05-15T10:26:00.064Z,39.90
2018-05-15T10:28:27.579Z,40.80
2018-05-15T10:30:55.251Z,41.30
2018-05-15T10:33:23.535Z,40.40
2018-05-15T10:35:51.823Z,40.10
2018-05-15T10:38:20.107Z,40.30
2018-05-15T10:40:48.579Z,41.10
2018-05-15T10:43:16.141Z,41.00
2018-05-15T10:45:43.695Z,40.10
2018-05-15T10:48:11.255Z,40.90
2018-05-15T10:50:39.648Z,41.00
2018-05-15T10:53:07.151Z,40.80
2018-05-15T10:55:34.666Z,40.10
2018-05-15T10:58:02.214Z,39.90
2018-05-15T11:00:29.782Z,39.80
2018-05-15T11:02:57.282Z,39.40
2018-05-15T11:05:24.795Z,40.50
2018-05-15T11:07:52.291Z,41.60
2018-05-15T11:10:19.826Z,42.40
2018-05-15T11:12:47.410Z,41.00
2018-05-15T11:15:14.874Z,41.00
2018-05-15T11:17:42.383Z,41.20
2018-05-15T11:20:21.838Z,40.80
2018-05-15T11:23:01.355Z,40.00
2018-05-15T11:25:28.926Z,40.30
2018-05-15T11:27:56.569Z,40.70
2018-05-15T11:30:24.063Z,41.40
2018-05-15T11:32:51.586Z,42.10
2018-05-15T11:35:20.642Z,42.60
2018-05-15T11:37:48.187Z,42.60
2018-05-15T11:40:15.683Z,42.80
2018-05-15T11:42:43.962Z,42.60
2018-05-15T11:45:12.249Z,42.50
2018-05-15T11:47:40.709Z,42.20
2018-05-15T11:50:09.446Z,42.30
2018-05-15T11:52:36.885Z,42.20
2018-05-15T11:55:04.215Z,42.40
2018-05-15T11:57:32.507Z,42.40
2018-05-15T12:00:00.937Z,42.50
2018-05-15T12:02:28.446Z,42.50
2018-05-15T12:04:55.863Z,42.60
2018-05-15T12:07:23.442Z,42.40
2018-05-15T12:09:51.704Z,43.00
2018-05-15T12:12:19.299Z,42.90
2018-05-15T12:14:46.843Z,41.60
2018-05-15T12:17:14.387Z,41.50
2018-05-15T12:19:43.392Z,41.50
2018-05-15T12:22:11.680Z,41.00
2018-05-15T12:24:39.995Z,41.40
2018-05-15T12:27:07.501Z,41.40
2018-05-15T12:29:34.992Z,42.30
2018-05-15T12:32:02.486Z,41.50
2018-05-15T12:34:30.096Z,40.80
2018-05-15T12:36:57.609Z,40.90
2018-05-15T12:39:25.113Z,41.10
2018-05-15T12:41:53.582Z,41.00
2018-05-15T12:44:21.043Z,41.00
2018-05-15T12:46:49.383Z,41.00
2018-05-15T12:49:16.880Z,41.00
2018-05-15T12:51:45.267Z,41.40
2018-05-15T12:54:12.831Z,41.30
2018-05-15T12:56:40.336Z,40.60
2018-05-15T12:59:07.874Z,39.80
2018-05-15T13:01:35.404Z,40.50
2018-05-15T13:04:02.962Z,41.30
2018-05-15T13:06:30.458Z,41.30
2018-05-15T13:08:58.175Z,39.80
2018-05-15T13:11:26.440Z,39.50
2018-05-15T13:13:54.748Z,39.40
2018-05-15T13:16:22.263Z,39.30
2018-05-15T13:18:49.776Z,38.60
2018-05-15T13:21:17.297Z,38.80
2018-05-15T13:23:45.554Z,39.30
2018-05-15T13:26:13.141Z,39.30
2018-05-15T13:28:41.413Z,38.10
2018-05-15T13:31:09.714Z,38.40
2018-05-15T13:33:37.273Z,38.40
2018-05-15T13:36:04.806Z,38.20
2018-05-15T13:38:33.108Z,38.00
2018-05-15T13:41:01.095Z,37.80
2018-05-15T13:43:28.626Z,37.40
2018-05-15T13:45:56.134Z,38.00
2018-05-15T13:48:23.630Z,38.00
2018-05-15T13:50:51.911Z,37.50
2018-05-15T13:53:19.403Z,37.50
2018-05-15T13:55:46.923Z,37.50
2018-05-15T13:58:15.213Z,37.30
2018-05-15T14:00:42.705Z,37.30
2018-05-15T14:03:10.242Z,37.30
2018-05-15T14:05:37.779Z,37.40
2018-05-15T14:08:05.348Z,35.60
2018-05-15T14:10:32.857Z,36.30
2018-05-15T14:13:00.374Z,36.20
2018-05-15T14:15:27.914Z,36.80
2018-05-15T14:17:55.474Z,37.20
2018-05-15T14:20:22.968Z,37.10
2018-05-15T14:22:50.472Z,36.50
2018-05-15T14:25:18.758Z,35.70
2018-05-15T14:27:47.052Z,35.50
2018-05-15T14:30:14.606Z,35.40
2018-05-15T14:32:42.155Z,35.80
2018-05-15T14:35:10.439Z,35.90
2018-05-15T14:37:37.950Z,35.90
2018-05-15T14:40:05.548Z,36.00
2018-05-15T14:42:45.815Z,35.80
2018-05-15T14:45:15.824Z,35.80
2018-05-15T14:47:44.109Z,35.80
2018-05-15T14:50:11.605Z,35.80
2018-05-15T14:52:39.100Z,34.70
2018-05-15T14:55:07.386Z,34.70
2018-05-15T14:57:35.666Z,35.10
2018-05-15T15:00:03.958Z,34.70
2018-05-15T15:02:31.447Z,34.70
2018-05-15T15:04:59.059Z,35.20
2018-05-15T15:07:27.311Z,35.60
2018-05-15T15:09:54.896Z,35.50
2018-05-15T15:12:22.396Z,35.50
2018-05-15T15:14:49.916Z,35.40
2018-05-15T15:17:17.466Z,35.00
2018-05-15T15:19:45.721Z,35.00
2018-05-15T15:22:14.001Z,34.30
2018-05-15T15:24:41.494Z,34.30
2018-05-15T15:27:09.032Z,34.80
2018-05-15T15:29:37.287Z,35.90
2018-05-15T15:32:04.803Z,35.80
2018-05-15T15:37:06.118Z,35.20
2018-05-15T15:39:33.607Z,35.60
2018-05-15T15:42:01.109Z,34.70
2018-05-15T15:44:28.624Z,34.40
2018-05-15T15:46:56.127Z,34.30
2018-05-15T15:49:23.728Z,34.20
2018-05-15T15:51:51.981Z,34.40
2018-05-15T15:54:19.496Z,34.40
2018-05-15T15:56:46.991Z,34.70
2018-05-15T15:59:15.259Z,35.50
2018-05-15T16:01:42.762Z,34.90
2018-05-15T16:04:10.378Z,34.40
2018-05-15T16:06:37.875Z,34.80
2018-05-15T16:09:05.439Z,34.30
2018-05-15T16:11:33.007Z,34.20
2018-05-15T16:14:00.510Z,34.30
2018-05-15T16:16:28.204Z,34.40
2018-05-15T16:18:56.487Z,34.50
2018-05-15T16:21:24.749Z,35.10
2018-05-15T16:23:53.051Z,35.80
2018-05-15T16:26:20.567Z,35.70
2018-05-15T16:28:48.154Z,34.70
2018-05-15T16:31:16.454Z,34.50
2018-05-15T16:33:43.987Z,34.50
2018-05-15T16:36:12.243Z,34.70
2018-05-15T16:38:39.753Z,34.60
2018-05-15T16:41:07.256Z,34.60
2018-05-15T16:43:34.844Z,34.70
2018-05-15T16:46:02.285Z,34.00
2018-05-15T16:48:30.559Z,34.50
2018-05-15T16:50:58.135Z,34.20
2018-05-15T16:53:26.458Z,33.90
2018-05-15T16:55:53.952Z,33.80
2018-05-15T16:58:21.441Z,33.90
2018-05-15T17:00:48.951Z,35.00
2018-05-15T17:03:16.542Z,34.20
2018-05-15T17:05:44.918Z,34.50
2018-05-15T17:08:13.222Z,35.00
2018-05-15T17:10:40.765Z,35.00
2018-05-15T17:13:09.074Z,35.20
2018-05-15T17:15:36.545Z,35.10
2018-05-15T17:18:04.149Z,35.40
2018-05-15T17:20:32.535Z,35.60
2018-05-15T17:23:00.817Z,35.40
2018-05-15T17:25:28.401Z,35.90
2018-05-15T17:27:55.927Z,35.60
2018-05-15T17:30:24.188Z,36.90
2018-05-15T17:32:52.478Z,36.50
2018-05-15T17:35:20.759Z,36.80
2018-05-15T17:37:48.272Z,36.80
2018-05-15T17:40:15.778Z,37.00
2018-05-15T17:42:43.295Z,37.20
2018-05-15T17:45:10.799Z,37.30
2018-05-15T17:47:38.363Z,37.20
2018-05-15T17:50:05.883Z,37.50
2018-05-15T17:52:33.476Z,37.80
2018-05-15T17:55:00.988Z,38.00
2018-05-15T17:57:28.478Z,38.30
2018-05-15T17:59:56.776Z,39.00
2018-05-15T18:02:24.259Z,39.00
2018-05-15T18:04:51.774Z,39.20
2018-05-15T18:07:20.032Z,39.50
2018-05-15T18:09:48.326Z,39.80
2018-05-15T18:12:16.602Z,39.80
2018-05-15T18:14:44.859Z,39.60
2018-05-15T18:17:13.140Z,39.80
2018-05-15T18:19:41.435Z,40.10
2018-05-15T18:22:08.958Z,40.10
2018-05-15T18:24:36.450Z,40.50
2018-05-15T18:27:04.715Z,41.40
2018-05-15T18:29:33.103Z,41.70
2018-05-15T18:32:00.599Z,41.70
2018-05-15T18:34:28.112Z,42.10
2018-05-15T18:36:56.398Z,42.40
2018-05-15T18:39:23.909Z,42.40
2018-05-15T18:41:51.409Z,42.80
2018-05-15T18:44:19.684Z,43.10
2018-05-15T18:46:47.939Z,43.10
2018-05-15T18:49:15.522Z,43.00
2018-05-15T18:51:43.779Z,43.50
2018-05-15T18:54:11.258Z,43.50
2018-05-15T18:56:39.526Z,43.60
2018-05-15T18:59:07.806Z,43.80
2018-05-15T19:01:36.087Z,43.90
2018-05-15T19:04:03.578Z,43.90
2018-05-15T19:06:31.095Z,44.00
2018-05-15T19:08:59.379Z,44.40
2018-05-15T19:11:26.895Z,44.30
2018-05-15T19:13:54.493Z,44.60
2018-05-15T19:16:22.019Z,44.60
2018-05-15T19:18:49.537Z,44.80
2018-05-15T19:21:17.047Z,45.10
2018-05-15T19:23:44.554Z,45.30
2018-05-15T19:26:12.083Z,46.00
2018-05-15T19:28:39.643Z,46.20
2018-05-15T19:31:07.131Z,46.30
2018-05-15T19:33:39.422Z,46.40
2018-05-15T19:36:09.790Z,46.40
2018-05-15T19:38:38.082Z,47.70
2018-05-15T19:41:06.371Z,47.70
2018-05-15T19:43:33.863Z,48.30
2018-05-15T19:46:01.387Z,48.70
2018-05-15T19:48:28.874Z,49.50
2018-05-15T19:50:56.381Z,49.00
2018-05-15T19:53:24.639Z,50.30
2018-05-15T19:55:52.922Z,50.00
2018-05-15T19:58:21.210Z,50.50
2018-05-15T20:00:49.491Z,50.30
2018-05-15T20:03:16.986Z,50.30
2018-05-15T20:05:44.503Z,50.60
2018-05-15T20:08:12.770Z,51.30
2018-05-15T20:10:41.023Z,50.70
2018-05-15T20:13:08.619Z,50.70
2018-05-15T20:15:36.104Z,50.90
2018-05-15T20:18:03.607Z,50.90
2018-05-15T20:20:31.878Z,51.10
2018-05-15T20:22:59.460Z,51.00
2018-05-15T20:25:27.729Z,50.90
2018-05-15T20:27:55.983Z,51.50
2018-05-15T20:30:23.491Z,51.50
2018-05-15T20:32:51.043Z,51.80
2018-05-15T20:35:18.691Z,51.90
2018-05-15T20:37:46.966Z,53.30
2018-05-15T20:40:15.250Z,52.50
2018-05-15T20:42:42.814Z,52.50
2018-05-15T20:45:10.365Z,52.20
2018-05-15T20:47:38.639Z,51.40
2018-05-15T20:50:06.886Z,51.20
2018-05-15T20:52:34.478Z,51.10
2018-05-15T20:55:02.763Z,50.70
2018-05-15T20:57:30.283Z,50.70
2018-05-15T20:59:57.781Z,50.60
2018-05-15T21:02:25.330Z,50.30
2018-05-15T21:04:53.715Z,50.10
2018-05-15T21:07:21.270Z,50.10
2018-05-15T21:09:48.775Z,50.10
2018-05-15T21:12:16.290Z,50.20
2018-05-15T21:14:43.803Z,50.60
2018-05-15T21:17:11.295Z,49.80
2018-05-15T21:19:39.578Z,49.60
2018-05-15T21:22:07.075Z,49.60
2018-05-15T21:24:34.595Z,49.70
2018-05-15T21:27:02.149Z,49.50
2018-05-15T21:29:30.433Z,49.50
2018-05-15T21:31:57.933Z,49.50
2018-05-15T21:34:25.487Z,49.60
2018-05-15T21:36:53.037Z,49.70
2018-05-15T21:39:20.506Z,49.60
2018-05-15T21:41:48.027Z,49.60
2018-05-15T21:44:15.558Z,49.60
2018-05-15T21:46:44.581Z,49.60
2018-05-15T21:49:13.042Z,49.90
2018-05-15T21:51:40.580Z,49.80
2018-05-15T21:54:08.074Z,49.90
2018-05-15T21:56:35.587Z,49.80
2018-05-15T21:59:03.079Z,50.00
2018-05-15T22:01:31.371Z,50.10
2018-05-15T22:03:58.870Z,50.10
2018-05-15T22:06:26.370Z,50.30
2018-05-15T22:08:54.648Z,50.40
2018-05-15T22:11:21.654Z,50.30
2018-05-15T22:14:01.071Z,50.40
2018-05-15T22:16:40.634Z,50.50
2018-05-15T22:19:20.118Z,50.60
2018-05-15T22:21:59.654Z,50.70
2018-05-15T22:24:28.948Z,50.90
2018-05-15T22:26:57.231Z,51.20
2018-05-15T22:29:24.802Z,51.10
2018-05-15T22:31:52.350Z,51.30
2018-05-15T22:34:20.636Z,51.70
2018-05-15T22:36:48.131Z,51.70
2018-05-15T22:39:15.636Z,51.80
2018-05-15T22:41:43.995Z,52.30
2018-05-15T22:44:11.439Z,52.30
2018-05-15T22:46:38.962Z,52.60
2018-05-15T22:49:06.503Z,52.80
2018-05-15T22:51:34.052Z,53.10
2018-05-15T22:54:02.311Z,53.60
2018-05-15T22:56:30.695Z,53.80
2018-05-15T22:58:58.959Z,54.00
2018-05-15T23:01:26.534Z,53.80
2018-05-15T23:03:54.811Z,54.20
2018-05-15T23:06:23.123Z,54.40
2018-05-15T23:08:50.655Z,54.40
2018-05-15T23:11:18.902Z,54.80
2018-05-15T23:13:46.482Z,54.70
2018-05-15T23:16:14.754Z,54.90
2018-05-15T23:18:43.047Z,55.20
2018-05-15T23:23:08.947Z,55.60
2018-05-15T23:25:36.467Z,55.60
2018-05-15T23:28:03.974Z,55.70
2018-05-15T23:30:32.272Z,56.20
2018-05-15T23:32:59.790Z,56.20
2018-05-15T23:35:27.305Z,56.40
2018-05-15T23:37:54.849Z,56.70
2018-05-15T23:40:22.380Z,56.80
2018-05-15T23:42:49.875Z,57.70
2018-05-15T23:45:17.380Z,57.10
2018-05-15T23:47:44.975Z,57.40
2018-05-15T23:50:13.258Z,57.50
2018-05-15T23:52:40.751Z,57.50
2018-05-15T23:55:08.255Z,57.30
2018-05-15T23:57:36.539Z,57.50
